Time;durP1;ratioP1;P1;durP2;ratioP2;P2;SDS_P1;SDS_P2;PMS_P1;PMS_P2;Temp;Humidity;BMP_temperature;BMP_pressure;BME280_temperature;BME280_humidity;BME280_pressure;Samples;Min_cycle;Max_cycle;Signal;HPM_P1;HPM_P2
2022/04/11 00:01:47;;;;;;;;;11.67;11.67;;;;;;;;5120787;27;45258;-79
2022/04/11 00:04:12;;;;;;;;;10.33;10.33;;;;;;;;5120608;27;45458;-78
2022/04/11 00:06:37;;;;;;;;;14.00;13.00;;;;;;;;5101925;27;45393;-78
2022/04/11 00:09:03;;;;;;;;;13.33;12.00;;;;;;;;5120724;27;45577;-78
2022/04/11 00:11:28;;;;;;;;;13.00;12.33;;;;;;;;5120551;27;45493;-78
2022/04/11 00:13:53;;;;;;;;;12.67;11.33;;;;;;;;5101567;27;48358;-78
2022/04/11 00:16:18;;;;;;;;;15.00;13.00;;;;;;;;5101332;27;45342;-78
2022/04/11 00:18:43;;;;;;;;;14.00;14.00;;;;;;;;5120486;27;45527;-78
2022/04/11 00:21:08;;;;;;;;;11.67;11.67;;;;;;;;5120358;27;45443;-78
2022/04/11 00:23:34;;;;;;;;;10.33;9.00;;;;;;;;5121653;27;45233;-78
2022/04/11 00:25:59;;;;;;;;;9.67;9.67;;;;;;;;5123987;27;45271;-78
2022/04/11 00:28:24;;;;;;;;;9.33;8.33;;;;;;;;5123855;27;45296;-78
2022/04/11 00:30:49;;;;;;;;;10.67;10.67;;;;;;;;5123946;27;45447;-78
2022/04/11 00:33:14;;;;;;;;;12.67;12.67;;;;;;;;5123682;27;46130;-78
2022/04/11 00:35:40;;;;;;;;;8.67;8.00;;;;;;;;5123926;27;45260;-78
2022/04/11 00:38:05;;;;;;;;;10.33;8.00;;;;;;;;5123368;27;45297;-78
2022/04/11 00:40:30;;;;;;;;;8.00;8.00;;;;;;;;5105070;27;46917;-78
2022/04/11 00:42:55;;;;;;;;;7.00;7.00;;;;;;;;5123415;27;45331;-78
2022/04/11 00:45:20;;;;;;;;;8.00;8.00;;;;;;;;5123663;27;45327;-78
2022/04/11 00:47:46;;;;;;;;;7.33;6.00;;;;;;;;5123781;27;45355;-78
2022/04/11 00:50:11;;;;;;;;;9.00;9.00;;;;;;;;5123483;27;45287;-78
2022/04/11 00:52:39;;;;;;;;;6.00;6.00;;;;;;;;5123364;27;45327;-78
2022/04/11 00:55:07;;;;;;;;;7.33;7.33;;;;;;;;5123581;27;45298;-78
2022/04/11 00:57:32;;;;;;;;;8.33;7.33;;;;;;;;5123630;27;45358;-78
2022/04/11 00:59:59;;;;;;;;;9.00;8.00;;;;;;;;5123206;27;45302;-78
2022/04/11 01:02:25;;;;;;;;;9.33;8.00;;;;;;;;5123377;27;46308;-78
2022/04/11 01:04:50;;;;;;;;;8.33;8.33;;;;;;;;5123361;27;45313;-78
2022/04/11 01:07:15;;;;;;;;;8.00;8.00;;;;;;;;5104822;27;45644;-78
2022/04/11 01:09:41;;;;;;;;;8.67;7.67;;;;;;;;5123251;27;45380;-78
2022/04/11 01:12:06;;;;;;;;;11.00;10.67;;;;;;;;5104557;27;47528;-78
2022/04/11 01:14:31;;;;;;;;;16.00;16.00;;;;;;;;5123072;27;45372;-78
2022/04/11 01:16:58;;;;;;;;;17.67;16.00;;;;;;;;5123041;27;45562;-78
2022/04/11 01:19:25;;;;;;;;;16.33;16.00;;;;;;;;5123143;27;45448;-78
2022/04/11 01:21:50;;;;;;;;;13.67;13.67;;;;;;;;5122831;27;45476;-78
2022/04/11 01:24:18;;;;;;;;;11.00;10.33;;;;;;;;5123064;27;45286;-78
2022/04/11 01:26:44;;;;;;;;;12.67;11.00;;;;;;;;5122998;27;45345;-78
2022/04/11 01:29:11;;;;;;;;;9.67;9.67;;;;;;;;5104196;27;45796;-79
2022/04/11 01:31:36;;;;;;;;;9.00;8.67;;;;;;;;5122760;27;46257;-79
2022/04/11 01:34:01;;;;;;;;;10.00;9.00;;;;;;;;5122659;27;45325;-78
2022/04/11 01:36:28;;;;;;;;;10.00;8.33;;;;;;;;5103704;27;45176;-79
2022/04/11 01:38:53;;;;;;;;;10.33;10.33;;;;;;;;5122446;27;45256;-79
2022/04/11 01:41:20;;;;;;;;;9.67;9.00;;;;;;;;5104173;27;47208;-78
2022/04/11 01:43:45;;;;;;;;;9.00;8.33;;;;;;;;5122524;27;45338;-78
2022/04/11 01:46:10;;;;;;;;;9.00;8.33;;;;;;;;5104234;27;45346;-79
2022/04/11 01:48:35;;;;;;;;;7.33;7.33;;;;;;;;5122663;27;45487;-78
2022/04/11 01:51:01;;;;;;;;;9.67;9.67;;;;;;;;5103993;27;46980;-79
2022/04/11 01:53:26;;;;;;;;;10.00;10.00;;;;;;;;5104021;27;45282;-78
2022/04/11 01:55:51;;;;;;;;;12.00;11.67;;;;;;;;5122814;27;45319;-79
2022/04/11 01:58:16;;;;;;;;;7.67;7.67;;;;;;;;5103673;27;46617;-78
2022/04/11 02:00:42;;;;;;;;;7.33;7.33;;;;;;;;5122477;27;46314;-79
2022/04/11 02:03:08;;;;;;;;;8.00;8.00;;;;;;;;5122450;27;45281;-79
2022/04/11 02:05:34;;;;;;;;;8.00;8.00;;;;;;;;5104097;27;45255;-79
2022/04/11 02:07:59;;;;;;;;;5.00;5.00;;;;;;;;5103695;27;46341;-79
2022/04/11 02:10:25;;;;;;;;;6.33;6.33;;;;;;;;5122313;27;45750;-78
2022/04/11 02:12:50;;;;;;;;;5.00;5.00;;;;;;;;5103552;27;45275;-79
2022/04/11 02:15:16;;;;;;;;;6.33;6.33;;;;;;;;5103234;27;45329;-78
2022/04/11 02:17:41;;;;;;;;;5.00;5.00;;;;;;;;5122288;27;45378;-79
2022/04/11 02:20:07;;;;;;;;;5.00;5.00;;;;;;;;5121960;27;46388;-78
2022/04/11 02:22:45;;;;;;;;;4.67;4.67;;;;;;;;5122080;27;45333;-78
2022/04/11 02:25:11;;;;;;;;;5.67;5.67;;;;;;;;5103816;27;45407;-78
2022/04/11 02:27:36;;;;;;;;;5.00;5.00;;;;;;;;5103046;27;46282;-78
2022/04/11 02:30:01;;;;;;;;;6.00;6.00;;;;;;;;5121937;27;46146;-79
2022/04/11 02:32:26;;;;;;;;;7.67;7.00;;;;;;;;5121850;27;45292;-78
2022/04/11 02:34:51;;;;;;;;;5.00;5.00;;;;;;;;5103645;27;45229;-78
2022/04/11 02:37:17;;;;;;;;;4.33;4.00;;;;;;;;5121637;27;45252;-78
2022/04/11 02:39:42;;;;;;;;;4.00;4.00;;;;;;;;5103322;27;48217;-79
2022/04/11 02:42:07;;;;;;;;;3.67;3.67;;;;;;;;5121986;27;45343;-78
2022/04/11 02:44:32;;;;;;;;;6.67;6.00;;;;;;;;5103267;27;45315;-78
2022/04/11 02:46:58;;;;;;;;;5.00;5.00;;;;;;;;5102904;27;45271;-78
2022/04/11 02:49:23;;;;;;;;;8.00;5.00;;;;;;;;5121699;27;46559;-78
2022/04/11 02:51:48;;;;;;;;;6.33;5.00;;;;;;;;5121635;27;45284;-78
2022/04/11 02:54:13;;;;;;;;;7.00;6.00;;;;;;;;5121979;27;45391;-78
2022/04/11 02:56:39;;;;;;;;;7.33;6.33;;;;;;;;5103174;27;46280;-79
2022/04/11 02:59:04;;;;;;;;;6.00;6.00;;;;;;;;5121251;27;46528;-78
2022/04/11 03:01:29;;;;;;;;;7.33;6.00;;;;;;;;5121588;27;45411;-79
2022/04/11 03:03:54;;;;;;;;;5.00;5.00;;;;;;;;5102975;27;45364;-79
2022/04/11 03:06:19;;;;;;;;;6.00;6.00;;;;;;;;5121503;27;45341;-78
2022/04/11 03:08:45;;;;;;;;;7.00;5.00;;;;;;;;5121235;27;46369;-79
2022/04/11 03:11:10;;;;;;;;;6.33;6.33;;;;;;;;5121454;27;45226;-78
2022/04/11 03:13:35;;;;;;;;;6.00;6.00;;;;;;;;5121251;27;45306;-79
2022/04/11 03:16:00;;;;;;;;;12.67;11.67;;;;;;;;5120640;27;45293;-78
2022/04/11 03:18:25;;;;;;;;;9.00;9.00;;;;;;;;5121165;27;45398;-78
2022/04/11 03:20:51;;;;;;;;;7.33;7.33;;;;;;;;5121468;27;45334;-79
2022/04/11 03:23:16;;;;;;;;;8.33;8.33;;;;;;;;5121382;27;45441;-79
2022/04/11 03:25:41;;;;;;;;;6.67;6.67;;;;;;;;5121279;27;45491;-78
2022/04/11 03:28:07;;;;;;;;;6.00;6.00;;;;;;;;5120996;27;45356;-79
2022/04/11 03:30:32;;;;;;;;;6.00;6.00;;;;;;;;5102294;27;46041;-78
2022/04/11 03:32:57;;;;;;;;;6.00;6.00;;;;;;;;5102451;27;45233;-78
2022/04/11 03:35:23;;;;;;;;;5.00;5.00;;;;;;;;5102533;27;45840;-78
2022/04/11 03:37:48;;;;;;;;;3.67;3.33;;;;;;;;5120474;27;45275;-79
2022/04/11 03:40:13;;;;;;;;;5.33;5.33;;;;;;;;5120863;27;45373;-79
2022/04/11 03:42:39;;;;;;;;;5.67;4.67;;;;;;;;5120839;27;45322;-78
2022/04/11 03:45:04;;;;;;;;;4.00;4.00;;;;;;;;5102398;27;45954;-79
2022/04/11 03:47:30;;;;;;;;;5.67;5.00;;;;;;;;5120745;27;45327;-78
2022/04/11 03:49:55;;;;;;;;;5.67;5.67;;;;;;;;5120811;27;45231;-79
2022/04/11 03:52:20;;;;;;;;;7.67;6.00;;;;;;;;5120853;27;45518;-78
2022/04/11 03:54:45;;;;;;;;;5.00;5.00;;;;;;;;5120786;27;45278;-79
2022/04/11 03:57:11;;;;;;;;;5.00;5.00;;;;;;;;5120471;27;46269;-78
2022/04/11 03:59:38;;;;;;;;;5.67;5.67;;;;;;;;5119922;27;45274;-78
2022/04/11 04:02:03;;;;;;;;;5.00;5.00;;;;;;;;5102196;27;45374;-79
2022/04/11 04:04:28;;;;;;;;;7.00;5.67;;;;;;;;5120464;27;46553;-78
2022/04/11 04:06:53;;;;;;;;;6.00;5.00;;;;;;;;5120476;27;46170;-78
2022/04/11 04:09:19;;;;;;;;;5.33;5.33;;;;;;;;5120782;27;45333;-78
2022/04/11 04:11:44;;;;;;;;;5.00;5.00;;;;;;;;5120685;27;45289;-78
2022/04/11 04:14:09;;;;;;;;;4.33;4.33;;;;;;;;5120410;27;45340;-78
2022/04/11 04:16:35;;;;;;;;;6.33;6.33;;;;;;;;5119624;27;45327;-78
2022/04/11 04:19:00;;;;;;;;;4.33;4.00;;;;;;;;5120385;27;45638;-79
2022/04/11 04:21:25;;;;;;;;;6.33;6.00;;;;;;;;5120617;27;45297;-78
2022/04/11 04:23:51;;;;;;;;;9.00;7.00;;;;;;;;5120324;27;45357;-78
2022/04/11 04:26:16;;;;;;;;;6.00;5.33;;;;;;;;5120349;27;45369;-78
2022/04/11 04:28:41;;;;;;;;;6.00;6.00;;;;;;;;5120204;27;45418;-78
2022/04/11 04:31:06;;;;;;;;;6.00;6.00;;;;;;;;5120344;27;45356;-78
2022/04/11 04:33:31;;;;;;;;;6.67;6.67;;;;;;;;5120417;27;45410;-78
2022/04/11 04:35:57;;;;;;;;;6.00;6.00;;;;;;;;5119935;27;45628;-79
2022/04/11 04:38:22;;;;;;;;;4.00;4.00;;;;;;;;5120126;27;45276;-78
2022/04/11 04:40:47;;;;;;;;;5.00;5.00;;;;;;;;5101815;27;45458;-78
2022/04/11 04:43:12;;;;;;;;;7.00;7.00;;;;;;;;5119903;27;45650;-78
2022/04/11 04:45:37;;;;;;;;;9.00;8.00;;;;;;;;5120119;27;45300;-78
2022/04/11 04:48:04;;;;;;;;;7.33;6.33;;;;;;;;5101410;27;45911;-78
2022/04/11 04:50:29;;;;;;;;;10.33;10.33;;;;;;;;5101523;27;45382;-78
2022/04/11 04:52:54;;;;;;;;;6.00;6.00;;;;;;;;5119718;27;45256;-78
2022/04/11 04:55:19;;;;;;;;;5.33;5.33;;;;;;;;5101325;27;47113;-79
2022/04/11 04:57:45;;;;;;;;;7.00;6.00;;;;;;;;5119779;27;45352;-78
2022/04/11 05:00:10;;;;;;;;;7.00;7.00;;;;;;;;5120004;27;45193;-78
2022/04/11 05:02:38;;;;;;;;;6.67;6.00;;;;;;;;5119740;27;45218;-78
2022/04/11 05:05:08;;;;;;;;;4.67;4.33;;;;;;;;5119912;27;45328;-78
2022/04/11 05:07:33;;;;;;;;;6.33;6.33;;;;;;;;5119697;27;45356;-78
2022/04/11 05:09:58;;;;;;;;;6.33;6.33;;;;;;;;5101770;27;45363;-79
2022/04/11 05:12:24;;;;;;;;;6.00;6.00;;;;;;;;5123044;27;45472;-79
2022/04/11 05:14:49;;;;;;;;;7.75;6.00;;;;;;;;5123078;27;45295;-78
2022/04/11 05:17:14;;;;;;;;;6.00;6.00;;;;;;;;5104562;27;46271;-78
2022/04/11 05:19:39;;;;;;;;;6.00;6.00;;;;;;;;5123402;27;45306;-78
2022/04/11 05:22:06;;;;;;;;;7.33;7.00;;;;;;;;5123136;27;45437;-78
2022/04/11 05:24:32;;;;;;;;;5.33;5.33;;;;;;;;5104511;27;48621;-78
2022/04/11 05:26:57;;;;;;;;;6.00;6.00;;;;;;;;5123021;27;45308;-79
2022/04/11 05:29:22;;;;;;;;;6.00;6.00;;;;;;;;5122971;27;45623;-78
2022/04/11 05:31:47;;;;;;;;;6.33;6.33;;;;;;;;5104338;27;47319;-78
2022/04/11 05:34:13;;;;;;;;;7.00;7.00;;;;;;;;5123022;27;45417;-78
2022/04/11 05:36:38;;;;;;;;;6.50;6.50;;;;;;;;5122740;27;45360;-78
2022/04/11 05:39:03;;;;;;;;;5.00;5.00;;;;;;;;5104495;27;45315;-79
2022/04/11 05:41:28;;;;;;;;;0.00;0.00;;;;;;;;5104326;27;45844;-78
2022/04/11 05:43:53;;;;;;;;;6.75;6.00;;;;;;;;5122622;27;46208;-78
2022/04/11 05:46:19;;;;;;;;;6.00;6.00;;;;;;;;5104234;27;45365;-79
2022/04/11 05:48:45;;;;;;;;;6.00;6.00;;;;;;;;5104494;27;45279;-80
2022/04/11 05:51:10;;;;;;;;;9.00;8.25;;;;;;;;5103956;27;46148;-78
2022/04/11 05:53:35;;;;;;;;;7.00;6.67;;;;;;;;5122534;27;46207;-76
2022/04/11 05:56:00;;;;;;;;;8.67;7.00;;;;;;;;5120524;27;46390;-76
2022/04/11 05:58:26;;;;;;;;;6.00;6.00;;;;;;;;5096321;27;45488;-77
2022/04/11 06:00:51;;;;;;;;;7.00;7.00;;;;;;;;5129113;27;45494;-78
2022/04/11 06:03:16;;;;;;;;;7.00;7.00;;;;;;;;5143181;27;45731;-77
2022/04/11 06:05:41;;;;;;;;;6.00;6.00;;;;;;;;5113094;27;45429;-79
2022/04/11 06:08:07;;;;;;;;;6.00;6.00;;;;;;;;5082523;27;46402;-79
2022/04/11 06:10:32;;;;;;;;;7.33;6.33;;;;;;;;5081637;27;46093;-78
2022/04/11 06:12:57;;;;;;;;;8.33;8.33;;;;;;;;5102784;27;46177;-78
2022/04/11 06:15:23;;;;;;;;;6.00;6.00;;;;;;;;5102998;27;45461;-79
2022/04/11 06:17:48;;;;;;;;;7.00;7.00;;;;;;;;5100280;27;45690;-79
2022/04/11 06:20:13;;;;;;;;;8.33;6.33;;;;;;;;5081457;27;46136;-77
2022/04/11 06:22:40;;;;;;;;;6.67;6.67;;;;;;;;5099514;27;45501;-78
2022/04/11 06:25:06;;;;;;;;;7.00;7.00;;;;;;;;5081629;27;45475;-78
2022/04/11 06:27:34;;;;;;;;;7.33;7.00;;;;;;;;5081448;27;45563;-78
2022/04/11 06:29:59;;;;;;;;;7.00;6.33;;;;;;;;5099860;27;45449;-79
2022/04/11 06:32:31;;;;;;;;;7.00;7.00;;;;;;;;5101216;27;45380;-80
2022/04/11 06:34:57;;;;;;;;;8.00;7.33;;;;;;;;5112395;27;45350;-77
2022/04/11 06:37:24;;;;;;;;;7.00;7.00;;;;;;;;5100588;27;45507;-79
2022/04/11 06:39:49;;;;;;;;;7.50;7.50;;;;;;;;5100839;27;47324;-80
2022/04/11 06:42:14;;;;;;;;;8.33;6.67;;;;;;;;5111469;27;45423;-79
2022/04/11 06:44:39;;;;;;;;;8.00;8.00;;;;;;;;5102270;27;45391;-78
2022/04/11 06:47:05;;;;;;;;;7.00;7.00;;;;;;;;5099808;27;45239;-79
2022/04/11 06:49:30;;;;;;;;;6.67;6.67;;;;;;;;5099552;27;45501;-79
2022/04/11 06:51:55;;;;;;;;;7.00;6.00;;;;;;;;5080904;27;47584;-78
2022/04/11 06:54:21;;;;;;;;;7.67;6.67;;;;;;;;5099514;27;45819;-79
2022/04/11 06:56:46;;;;;;;;;6.67;6.00;;;;;;;;5099762;27;45451;-80
2022/04/11 06:59:11;;;;;;;;;6.33;6.00;;;;;;;;5099195;27;45477;-80
2022/04/11 07:01:37;;;;;;;;;8.00;7.00;;;;;;;;5099867;27;45354;-78
2022/04/11 07:04:02;;;;;;;;;8.67;7.67;;;;;;;;5082397;27;46076;-77
2022/04/11 07:06:27;;;;;;;;;8.33;6.33;;;;;;;;5100960;27;45365;-79
2022/04/11 07:08:52;;;;;;;;;4.33;4.33;;;;;;;;5100865;27;45392;-78
2022/04/11 07:11:18;;;;;;;;;8.33;8.33;;;;;;;;5082314;27;48433;-78
2022/04/11 07:13:44;;;;;;;;;7.00;7.00;;;;;;;;5111448;27;45431;-77
2022/04/11 07:16:09;;;;;;;;;7.33;7.33;;;;;;;;5120991;27;45299;-77
2022/04/11 07:18:35;;;;;;;;;7.00;7.00;;;;;;;;5078441;27;47307;-78
2022/04/11 07:21:01;;;;;;;;;6.33;6.33;;;;;;;;5099875;27;45349;-77
2022/04/11 07:23:26;;;;;;;;;7.00;7.00;;;;;;;;5100424;27;45248;-78
2022/04/11 07:25:51;;;;;;;;;6.00;6.00;;;;;;;;5082395;27;45323;-80
2022/04/11 07:28:17;;;;;;;;;7.00;7.00;;;;;;;;5100308;27;45404;-79
2022/04/11 07:30:42;;;;;;;;;6.33;6.33;;;;;;;;5097783;27;45883;-78
2022/04/11 07:33:08;;;;;;;;;7.00;5.00;;;;;;;;5110422;27;45376;-80
2022/04/11 07:35:33;;;;;;;;;7.00;7.00;;;;;;;;5120780;27;45346;-79
2022/04/11 07:38:00;;;;;;;;;7.33;7.33;;;;;;;;5086547;27;46026;-80
2022/04/11 07:40:25;;;;;;;;;8.00;6.00;;;;;;;;5099892;27;46018;-80
2022/04/11 07:42:51;;;;;;;;;6.00;6.00;;;;;;;;5080894;27;45303;-78
2022/04/11 07:45:17;;;;;;;;;6.00;5.33;;;;;;;;5119949;27;45378;-80
2022/04/11 07:47:42;;;;;;;;;9.00;7.67;;;;;;;;5122983;27;45470;-79
2022/04/11 07:50:08;;;;;;;;;7.00;5.67;;;;;;;;5088185;27;48262;-80
2022/04/11 07:52:36;;;;;;;;;6.33;6.33;;;;;;;;5119683;27;45287;-79
2022/04/11 07:55:01;;;;;;;;;6.33;6.33;;;;;;;;5126328;27;45396;-78
2022/04/11 07:57:26;;;;;;;;;6.00;5.67;;;;;;;;5118234;27;45331;-79
2022/04/11 07:59:51;;;;;;;;;7.00;7.00;;;;;;;;5120196;27;45376;-77
2022/04/11 08:02:22;;;;;;;;;4.67;4.67;;;;;;;;5117414;27;45266;-78
2022/04/11 08:04:47;;;;;;;;;7.33;6.67;;;;;;;;5119702;27;45426;-79
2022/04/11 08:07:12;;;;;;;;;6.67;6.67;;;;;;;;5117285;27;46456;-80
2022/04/11 08:09:38;;;;;;;;;8.00;6.00;;;;;;;;5096111;27;47540;-79
2022/04/11 08:12:03;;;;;;;;;6.00;5.33;;;;;;;;5097387;27;45280;-80
2022/04/11 08:14:29;;;;;;;;;7.67;7.67;;;;;;;;5115556;27;46045;-79
2022/04/11 08:16:55;;;;;;;;;5.00;5.00;;;;;;;;5119357;27;45275;-79
2022/04/11 08:19:20;;;;;;;;;7.33;7.33;;;;;;;;5119716;27;45757;-78
2022/04/11 08:21:45;;;;;;;;;4.33;4.33;;;;;;;;5110447;27;45417;-77
2022/04/11 08:24:10;;;;;;;;;5.33;5.33;;;;;;;;5106322;27;45247;-80
2022/04/11 08:26:35;;;;;;;;;7.33;6.00;;;;;;;;5110843;27;45682;-79
2022/04/11 08:29:01;;;;;;;;;5.00;5.00;;;;;;;;5099939;27;47619;-79
2022/04/11 08:31:26;;;;;;;;;5.67;5.67;;;;;;;;5119239;27;45341;-80
2022/04/11 08:33:51;;;;;;;;;5.67;5.67;;;;;;;;5119176;27;45376;-79
2022/04/11 08:36:17;;;;;;;;;5.00;5.00;;;;;;;;5114868;27;45313;-79
2022/04/11 08:38:42;;;;;;;;;5.33;5.33;;;;;;;;5086856;27;46139;-79
2022/04/11 08:41:13;;;;;;;;;4.67;4.67;;;;;;;;5094472;27;45264;-77
2022/04/11 08:43:38;;;;;;;;;4.67;4.67;;;;;;;;5123402;27;45385;-78
2022/04/11 08:46:06;;;;;;;;;5.33;5.33;;;;;;;;5118698;27;45654;-79
2022/04/11 08:48:31;;;;;;;;;7.33;7.33;;;;;;;;5110114;27;46176;-77
2022/04/11 08:50:56;;;;;;;;;5.00;5.00;;;;;;;;5115639;27;45404;-77
2022/04/11 08:53:22;;;;;;;;;5.33;5.00;;;;;;;;5102687;27;45695;-78
2022/04/11 08:55:48;;;;;;;;;9.00;7.67;;;;;;;;5120954;27;45665;-77
2022/04/11 08:58:13;;;;;;;;;11.00;9.33;;;;;;;;5119054;27;46094;-81
2022/04/11 09:00:38;;;;;;;;;6.33;6.00;;;;;;;;5113477;27;45987;-77
2022/04/11 09:03:05;;;;;;;;;5.67;5.67;;;;;;;;5118786;27;45436;-79
2022/04/11 09:05:31;;;;;;;;;5.67;4.33;;;;;;;;5111922;27;45714;-77
2022/04/11 09:07:57;;;;;;;;;4.00;4.00;;;;;;;;5117941;27;45989;-78
2022/04/11 09:10:23;;;;;;;;;3.33;3.33;;;;;;;;5093464;27;45275;-79
2022/04/11 09:12:49;;;;;;;;;3.00;3.00;;;;;;;;5114209;27;45344;-78
2022/04/11 09:15:15;;;;;;;;;4.00;4.00;;;;;;;;5105454;27;46909;-77
2022/04/11 09:17:41;;;;;;;;;3.33;3.33;;;;;;;;5114894;27;45868;-77
2022/04/11 09:20:10;;;;;;;;;3.00;3.00;;;;;;;;5112687;27;45353;-79
2022/04/11 09:22:35;;;;;;;;;3.67;3.67;;;;;;;;5094565;27;45513;-79
2022/04/11 09:25:04;;;;;;;;;4.00;4.00;;;;;;;;5107255;27;46836;-79
2022/04/11 09:27:30;;;;;;;;;3.33;3.33;;;;;;;;5096219;27;47632;-77
2022/04/11 09:29:55;;;;;;;;;4.00;3.00;;;;;;;;5100472;27;45439;-78
2022/04/11 09:32:20;;;;;;;;;3.00;3.00;;;;;;;;5082659;27;45417;-78
2022/04/11 09:34:52;;;;;;;;;3.00;3.00;;;;;;;;5098372;27;46039;-78
2022/04/11 09:37:17;;;;;;;;;4.00;4.00;;;;;;;;5094559;27;47556;-77
2022/04/11 09:39:44;;;;;;;;;2.00;2.00;;;;;;;;5102970;27;45372;-77
2022/04/11 09:42:09;;;;;;;;;2.00;2.00;;;;;;;;5095507;27;45449;-76
2022/04/11 09:44:35;;;;;;;;;1.00;1.00;;;;;;;;5097964;27;45660;-78
2022/04/11 09:47:01;;;;;;;;;3.00;3.00;;;;;;;;5090098;27;47111;-80
2022/04/11 09:49:27;;;;;;;;;3.00;3.00;;;;;;;;5092238;27;45435;-77
2022/04/11 09:52:01;;;;;;;;;2.67;2.67;;;;;;;;5089128;27;45621;-77
2022/04/11 09:54:27;;;;;;;;;2.00;2.00;;;;;;;;5089195;27;47252;-78
2022/04/11 09:56:53;;;;;;;;;3.00;2.00;;;;;;;;5115737;27;45647;-77
2022/04/11 09:59:20;;;;;;;;;4.00;4.00;;;;;;;;5088466;27;45381;-79
2022/04/11 10:01:46;;;;;;;;;1.00;1.00;;;;;;;;5099551;27;45429;-78
2022/04/11 10:04:11;;;;;;;;;4.00;3.00;;;;;;;;5096345;27;45485;-78
2022/04/11 10:06:37;;;;;;;;;3.00;3.00;;;;;;;;5101261;27;47982;-77
2022/04/11 10:09:02;;;;;;;;;1.67;1.67;;;;;;;;5103261;27;45383;-77
2022/04/11 10:11:28;;;;;;;;;2.00;2.00;;;;;;;;5104657;27;45310;-79
2022/04/11 10:13:54;;;;;;;;;3.33;3.33;;;;;;;;5100167;27;45579;-77
2022/04/11 10:16:19;;;;;;;;;4.33;4.00;;;;;;;;5088051;27;47071;-78
2022/04/11 10:18:45;;;;;;;;;3.00;3.00;;;;;;;;5087413;27;45346;-81
2022/04/11 10:21:13;;;;;;;;;3.33;3.33;;;;;;;;5099520;27;46017;-79
2022/04/11 10:23:47;;;;;;;;;3.67;3.00;;;;;;;;5122058;27;45511;-80
2022/04/11 10:26:17;;;;;;;;;4.33;3.00;;;;;;;;5103194;27;45389;-79
2022/04/11 10:28:47;;;;;;;;;1.33;1.33;;;;;;;;5121689;27;45346;-80
2022/04/11 10:31:13;;;;;;;;;2.33;2.33;;;;;;;;5103291;27;45517;-79
2022/04/11 10:33:44;;;;;;;;;3.00;3.00;;;;;;;;5103366;27;46237;-81
2022/04/11 10:36:28;;;;;;;;;3.00;3.00;;;;;;;;5103104;27;48308;-79
2022/04/11 10:39:12;;;;;;;;;3.00;3.00;;;;;;;;5103084;27;45546;-80
2022/04/11 10:41:56;;;;;;;;;3.00;3.00;;;;;;;;5103594;27;45888;-77
2022/04/11 10:44:35;;;;;;;;;2.00;2.00;;;;;;;;5102906;27;46119;-79
2022/04/11 10:47:12;;;;;;;;;3.00;3.00;;;;;;;;5102985;27;47915;-79
2022/04/11 10:49:50;;;;;;;;;3.33;3.33;;;;;;;;5103165;27;45339;-78
2022/04/11 10:52:34;;;;;;;;;2.33;2.33;;;;;;;;5103324;27;45498;-80
2022/04/11 10:55:09;;;;;;;;;2.33;2.33;;;;;;;;5091044;27;46624;-79
2022/04/11 10:57:45;;;;;;;;;3.67;3.67;;;;;;;;5110801;27;46116;-79
2022/04/11 11:00:11;;;;;;;;;3.00;3.00;;;;;;;;5098840;27;45476;-78
2022/04/11 11:03:22;;;;;;;;;2.33;2.33;;;;;;;;5081249;27;45444;-79
2022/04/11 11:05:45;;;;;;;;;3.00;3.00;;;;;;;;5095542;27;45334;-76
2022/04/11 11:08:11;;;;;;;;;3.00;3.00;;;;;;;;5080959;27;47944;-82
2022/04/11 11:10:41;;;;;;;;;2.00;2.00;;;;;;;;5092814;27;45687;-79
2022/04/11 11:13:26;;;;;;;;;4.00;4.00;;;;;;;;5080673;27;45470;-81
2022/04/11 11:15:51;;;;;;;;;3.00;3.00;;;;;;;;5091479;27;45416;-79
2022/04/11 11:18:17;;;;;;;;;4.00;4.00;;;;;;;;5119792;27;45936;-80
2022/04/11 11:20:51;;;;;;;;;2.00;2.00;;;;;;;;5094167;27;45408;-77
2022/04/11 11:23:20;;;;;;;;;3.00;3.00;;;;;;;;5115089;27;45330;-77
2022/04/11 11:25:45;;;;;;;;;2.00;2.00;;;;;;;;5090523;27;46821;-78
2022/04/11 11:28:11;;;;;;;;;4.00;4.00;;;;;;;;5081511;27;47165;-78
2022/04/11 11:30:37;;;;;;;;;3.00;3.00;;;;;;;;5099948;27;45297;-75
2022/04/11 11:33:02;;;;;;;;;3.67;3.67;;;;;;;;5100184;27;45387;-77
2022/04/11 11:35:28;;;;;;;;;5.00;4.00;;;;;;;;5081216;27;45986;-76
2022/04/11 11:38:05;;;;;;;;;3.67;3.33;;;;;;;;5080969;27;48037;-77
2022/04/11 11:40:31;;;;;;;;;2.33;2.33;;;;;;;;5081308;27;45751;-78
2022/04/11 11:42:59;;;;;;;;;3.33;3.00;;;;;;;;5099402;27;45515;-78
2022/04/11 11:45:28;;;;;;;;;3.33;3.33;;;;;;;;5081202;27;46907;-80
2022/04/11 11:47:53;;;;;;;;;3.00;3.00;;;;;;;;5081234;27;48265;-77
2022/04/11 11:50:18;;;;;;;;;3.00;3.00;;;;;;;;5085032;27;45488;-82
2022/04/11 12:05:37;;;;;;;;;6.67;5.00;;;;;;;;4996655;28;45436;-77
2022/04/11 12:58:59;;;;;;;;;5.00;5.00;;;;;;;;4920766;28;45318;-78
2022/04/11 13:07:22;;;;;;;;;6.67;6.00;;;;;;;;5102446;27;45486;-78
2022/04/11 13:10:35;;;;;;;;;6.00;6.00;;;;;;;;5086370;27;45912;-78
2022/04/11 13:13:46;;;;;;;;;;;;;;;;;;;;;
2022/04/11 13:19:26;;;;;;;;;;;;;;;;;;;;;
2022/04/11 13:21:51;;;;;;;;;4.33;4.33;;;;;;;;5101964;27;73681;-78
2022/04/11 13:24:17;;;;;;;;;3.33;3.33;;;;;;;;5106080;27;46680;-78
2022/04/11 13:26:45;;;;;;;;;4.00;4.00;;;;;;;;5095303;27;45311;-82
2022/04/11 13:29:36;;;;;;;;;;;;;;;;;;;;;
2022/04/11 13:32:02;;;;;;;;;5.00;5.00;;;;;;;;5120358;27;75451;-78
2022/04/11 13:34:30;;;;;;;;;4.67;4.67;;;;;;;;5106822;27;48565;-78
2022/04/11 13:37:01;;;;;;;;;4.33;4.33;;;;;;;;5102882;27;45381;-79
2022/04/11 13:39:26;;;;;;;;;4.00;4.00;;;;;;;;5106208;27;45531;-78
2022/04/11 13:42:14;;;;;;;;;5.67;5.00;;;;;;;;5126060;27;45527;-79
2022/04/11 13:44:39;;;;;;;;;2.00;2.00;;;;;;;;5127589;27;47745;-78
2022/04/11 13:47:04;;;;;;;;;3.00;3.00;;;;;;;;5126764;27;45709;-78
2022/04/11 13:49:31;;;;;;;;;3.33;3.33;;;;;;;;5119305;27;45388;-78
2022/04/11 13:51:58;;;;;;;;;3.67;3.67;;;;;;;;5111271;27;45350;-79
2022/04/11 13:54:24;;;;;;;;;3.00;3.00;;;;;;;;5102158;27;47033;-76
2022/04/11 13:56:59;;;;;;;;;3.00;3.00;;;;;;;;5111592;27;45507;-77
2022/04/11 13:59:53;;;;;;;;;4.67;4.67;;;;;;;;5105695;27;45492;-78
2022/04/11 14:02:23;;;;;;;;;4.00;4.00;;;;;;;;5104087;27;45663;-79
2022/04/11 14:04:51;;;;;;;;;3.00;3.00;;;;;;;;5116933;27;46903;-78
2022/04/11 14:07:30;;;;;;;;;3.67;3.67;;;;;;;;5117297;27;45268;-77
2022/04/11 14:10:07;;;;;;;;;3.00;3.00;;;;;;;;5117172;27;45527;-79
2022/04/11 14:12:59;;;;;;;;;3.00;3.00;;;;;;;;5113990;27;46905;-79
2022/04/11 14:15:24;;;;;;;;;3.00;3.00;;;;;;;;5114610;27;46309;-76
2022/04/11 14:17:49;;;;;;;;;3.00;3.00;;;;;;;;5110847;27;45494;-78
2022/04/11 14:20:15;;;;;;;;;4.00;3.00;;;;;;;;5119072;27;45342;-76
2022/04/11 14:22:41;;;;;;;;;2.33;2.33;;;;;;;;5109959;27;45688;-76
2022/04/11 14:25:06;;;;;;;;;3.67;2.67;;;;;;;;5119511;27;46369;-76
2022/04/11 14:27:32;;;;;;;;;2.00;2.00;;;;;;;;5110084;27;45937;-76
2022/04/11 14:29:57;;;;;;;;;2.33;2.33;;;;;;;;5113133;27;45388;-76
2022/04/11 14:32:23;;;;;;;;;2.67;2.67;;;;;;;;5102095;27;45334;-76
2022/04/11 14:34:48;;;;;;;;;1.00;1.00;;;;;;;;5113339;27;45436;-76
2022/04/11 14:37:13;;;;;;;;;3.33;3.33;;;;;;;;5107981;27;45272;-77
2022/04/11 14:39:40;;;;;;;;;1.33;1.33;;;;;;;;5121226;27;45281;-78
2022/04/11 14:42:05;;;;;;;;;3.33;3.33;;;;;;;;5095556;27;46596;-78
2022/04/11 14:44:30;;;;;;;;;2.33;2.33;;;;;;;;5115950;27;45355;-78
2022/04/11 14:46:56;;;;;;;;;1.33;1.33;;;;;;;;5112736;27;45152;-77
2022/04/11 14:49:21;;;;;;;;;4.00;2.33;;;;;;;;5110161;27;45409;-77
2022/04/11 14:51:46;;;;;;;;;2.67;2.00;;;;;;;;5108599;27;45384;-76
2022/04/11 14:54:11;;;;;;;;;3.00;2.00;;;;;;;;5107973;27;45390;-77
2022/04/11 14:56:37;;;;;;;;;3.00;2.33;;;;;;;;5110025;27;45321;-75
2022/04/11 14:59:02;;;;;;;;;2.00;2.00;;;;;;;;5110287;27;45270;-77
2022/04/11 15:01:41;;;;;;;;;2.00;2.00;;;;;;;;5108752;27;46921;-77
2022/04/11 15:04:07;;;;;;;;;3.00;2.33;;;;;;;;5127752;27;45488;-77
2022/04/11 15:06:32;;;;;;;;;2.33;2.33;;;;;;;;5130302;27;45398;-77
2022/04/11 15:08:57;;;;;;;;;1.67;1.67;;;;;;;;5125613;27;45368;-76
2022/04/11 15:11:24;;;;;;;;;1.00;1.00;;;;;;;;5109654;27;45358;-77
2022/04/11 15:13:55;;;;;;;;;3.00;3.00;;;;;;;;5112924;27;45579;-79
2022/04/11 15:16:21;;;;;;;;;5.00;3.00;;;;;;;;5127681;27;45586;-80
2022/04/11 15:19:00;;;;;;;;;2.00;2.00;;;;;;;;5145097;27;45425;-82
2022/04/11 15:21:28;;;;;;;;;2.00;2.00;;;;;;;;5103395;27;46377;-79
2022/04/11 15:23:56;;;;;;;;;1.00;1.00;;;;;;;;5102955;27;45388;-79
2022/04/11 15:26:23;;;;;;;;;3.33;3.33;;;;;;;;5103650;27;45355;-81
2022/04/11 15:28:48;;;;;;;;;2.67;2.67;;;;;;;;5120821;27;45231;-83
2022/04/11 15:31:14;;;;;;;;;2.33;2.33;;;;;;;;5119746;27;45746;-81
2022/04/11 15:33:39;;;;;;;;;1.67;1.00;;;;;;;;5107695;27;45943;-80
2022/04/11 15:36:05;;;;;;;;;1.75;1.75;;;;;;;;5113967;27;45411;-82
2022/04/11 15:38:45;;;;;;;;;;;;;;;;;;;;;
2022/04/11 15:41:11;;;;;;;;;2.00;2.00;;;;;;;;5117374;27;74111;-79
2022/04/11 15:43:36;;;;;;;;;4.00;4.00;;;;;;;;5120674;27;46162;-79
2022/04/11 15:46:03;;;;;;;;;3.00;3.00;;;;;;;;5121692;27;45232;-79
2022/04/11 15:48:28;;;;;;;;;2.00;2.00;;;;;;;;5118344;27;45275;-79
2022/04/11 15:50:53;;;;;;;;;1.33;1.33;;;;;;;;5101613;27;45545;-80
2022/04/11 15:53:19;;;;;;;;;3.33;3.33;;;;;;;;5123451;27;45441;-79
2022/04/11 15:55:44;;;;;;;;;2.67;2.67;;;;;;;;5144116;27;45540;-80
2022/04/11 15:58:09;;;;;;;;;3.00;3.00;;;;;;;;5101795;27;45487;-81